Latest Coastal Weather Observations for Portland Airport

IDV60701

Issued at 8:05 pm EDT Tuesday 21 October 2014 (issued every 10 minutes, with the page automatically refreshed every 10 minutes)

About coastal observations | Map of coastal stations | Coastal observations for VIC | Marine services | Other Formats
Station Details ID: 090171 Name: CASHMORE AIRPORT Lat: -38.31 Lon: 141.47 Height: 80.9 m
Data from the previous 72 hours. | See also: Recent months at Portland Airport
Date/Time
EDT
Temp

°C
Wind Pressure Rain
since 9am
mm
Weather Cloud Vis
km
Sea
Height
m
Swell
Dir
 
Speed
knots
Gust
knots
hPa Trend Height
m
Period
s
Dir
21/08:00pm 15.5 E 8 11 1020.6 - 0.0 - - 10 - - - -
21/07:30pm 16.4 E 8 12 1020.6 - 0.0 - - 10 - - - -
21/07:00pm 17.5 E 7 11 1020.6 - 0.0 - - 10 - - - -
21/06:30pm 18.1 E 8 12 1020.7 - 0.0 - - 10 - - - -
21/06:00pm 19.2 E 8 13 1020.8 - 0.0 - - 10 - - - -
21/05:30pm 20.0 E 9 12 1020.9 - 0.0 - - 10 - - - -
21/05:00pm 20.5 E 9 13 1021.1 - 0.0 - - 10 - - - -
21/04:30pm 21.3 E 9 12 1021.4 - 0.0 - - 10 - - - -
21/04:00pm 21.4 E 9 11 1021.8 - 0.0 - - 10 - - - -
21/03:30pm 21.6 E 8 10 1022.1 - 0.0 - - 10 - - - -
21/03:00pm 21.4 E 7 10 1022.7 - 0.0 - Mostly clear 10 - - - -
21/02:30pm 20.6 E 7 11 1023.0 - 0.0 - - 10 - - - -
21/02:00pm 20.4 E 6 9 1023.4 - 0.0 - - 10 - - - -
21/01:30pm 19.7 ESE 6 8 1023.8 - 0.0 - - 10 - - - -
21/01:00pm 18.9 E 5 9 1024.0 - 0.0 - - 10 - - - -
21/12:30pm 18.0 E 6 8 1024.3 - 0.0 - - 10 - - - -
21/12:00pm 17.3 E 7 9 1024.5 - 0.0 - - 10 - - - -
21/11:30am 15.6 E 6 9 1024.8 - 0.0 - - 10 - - - -
21/11:00am 13.5 E 7 10 1025.1 - 0.0 - - 10 - - - -
21/10:30am 13.7 E 7 11 1025.2 - 0.0 - - 10 - - - -
21/10:00am 12.8 E 7 11 1025.0 - 0.0 - - 10 - - - -
21/09:30am 11.8 ENE 8 11 1025.1 - 0.0 - - 10 - - - -
21/09:00am 11.2 ENE 7 12 1025.3 - 0.0 - - 10 - - - -
21/08:30am 10.3 ENE 10 16 1025.2 - 0.0 - - 10 - - - -
21/08:00am 9.8 E 12 18 1025.0 - 0.0 - - 10 - - - -
21/07:30am 9.1 E 11 17 1024.8 - 0.0 - - 10 - - - -
21/07:00am 8.8 ENE 12 20 1024.8 - 0.0 - - 10 - - - -
21/06:30am 8.7 ENE 11 16 1024.6 - 0.0 - - 10 - - - -
21/06:00am 8.7 ENE 12 20 1024.4 - 0.0 - Partly cloudy 10 - - - -
21/05:30am 8.7 ENE 11 18 1024.6 - 0.0 - - 10 - - - -
21/05:00am 8.7 ENE 10 18 1024.8 - 0.0 - - 10 - - - -
21/04:30am 8.8 ENE 9 15 1025.0 - 0.0 - - 10 - - - -
21/04:00am 8.9 ENE 10 14 1025.1 - 0.0 - - 10 - - - -
21/03:30am 9.1 ENE 11 17 1025.4 - 0.0 - - 10 - - - -
21/03:00am 9.3 ENE 9 13 1025.5 - 0.0 - - 10 - - - -
21/02:30am 10.1 ENE 10 15 1025.7 - 0.0 - - 10 - - - -
21/02:00am 10.5 ENE 10 17 1026.1 - 0.0 - - 10 - - - -
21/01:30am 10.6 ENE 10 17 1026.4 - 0.0 - - 10 - - - -
21/01:00am 10.8 E 11 19 1026.9 - 0.0 - - 10 - - - -
21/12:30am 10.8 E 12 19 1027.2 - 0.0 - - 10 - - - -
21/12:00am 10.6 E 10 17 1027.4 - 0.0 - - 10 - - - -
 
Date/Time
EDT
Temp

°C
Wind Pressure Rain
since 9am
mm
Weather Cloud Vis
km
Sea
Height
m
Swell
Dir
 
Speed
knots
Gust
knots
hPa Trend Height
m
Period
s
Dir
20/11:30pm 10.5 ENE 9 15 1027.6 - 0.0 - - 10 - - - -
20/11:00pm 10.8 ENE 11 17 1027.7 - 0.0 - - 10 - - - -
20/10:30pm 11.2 E 11 15 1027.8 - 0.0 - - 10 - - - -
20/10:00pm 11.9 E 12 18 1027.8 - 0.0 - - 10 - - - -
20/09:30pm 12.1 E 11 18 1027.6 - 0.0 - - 10 - - - -
20/09:00pm 11.9 E 13 21 1027.4 - 0.0 - - 10 - - - -
20/08:30pm 11.8 E 13 18 1027.2 - 0.0 - - 10 - - - -
20/08:00pm 11.8 E 13 21 1027.2 - 0.0 - - 10 - - - -
20/07:30pm 12.2 E 13 21 1027.1 - 0.0 - - 10 - - - -
20/07:00pm 12.8 E 14 21 1027.2 - 0.0 - - 10 - - - -
20/06:30pm 13.3 E 12 18 1027.6 - 0.0 - - 10 - - - -
20/06:00pm 13.3 E 14 21 1027.8 - 0.0 - - 10 - - - -
20/05:30pm 13.5 ESE 13 21 1028.1 - 0.0 - - 10 - - - -
20/05:00pm 13.9 ESE 13 20 1028.2 - 0.0 - - 10 - - - -
20/04:30pm 14.0 ESE 13 22 1028.6 - 0.0 - - 10 - - - -
20/04:00pm 14.2 ESE 12 21 1028.8 - 0.0 - - 10 - - - -
20/03:30pm 14.7 ESE 13 22 1029.0 - 0.0 - - 10 - - - -
20/03:00pm 14.2 ESE 15 22 1029.1 - 0.0 - - 10 - - - -
20/02:30pm 15.1 ESE 14 23 1029.2 - 0.0 - - 10 - - - -
20/02:00pm 14.1 ESE 14 21 1029.4 - 0.0 - - 10 - - - -
20/01:30pm 14.2 E 15 22 1029.7 - 0.0 - - 10 - - - -
20/01:00pm 14.2 E 14 23 1030.1 - 0.0 - - 10 - - - -
20/12:30pm 13.9 E 15 22 1030.5 - 0.0 - - 10 - - - -
20/12:12pm 13.8 E 16 26 1030.4 - 0.0 - Partly cloudy 10 - - - -
20/12:00pm 13.4 E 17 25 1030.5 - 0.0 - Partly cloudy 10 - - - -
20/11:30am 13.8 E 15 25 1031.0 - 0.0 - Partly cloudy 10 - - - -
20/11:14am 13.3 E 16 27 1030.9 - 0.0 - Partly cloudy 10 - - - -
20/11:00am 13.4 E 17 25 1031.0 - 0.0 - Partly cloudy 10 - - - -
20/10:36am 13.2 E 15 25 1030.9 - 0.0 - Partly cloudy 10 - - - -
20/10:30am 13.5 E 15 24 1031.0 - 0.0 - Partly cloudy 10 - - - -
20/10:00am 12.8 E 15 27 1030.8 - 0.0 - Partly cloudy 10 - - - -
20/09:56am 12.6 E 16 27 1030.8 - 0.0 - Partly cloudy 10 - - - -
20/09:30am 12.3 ESE 14 23 1030.6 - 0.0 - Partly cloudy 10 - - - -
20/09:00am 11.7 ESE 14 23 1031.0 - 0.2 - Partly cloudy 10 - - - -
20/08:30am 11.3 ESE 13 20 1030.6 - 0.2 - Partly cloudy 10 - - - -
20/08:00am 11.0 ESE 13 21 1030.1 - 0.2 - Partly cloudy 10 - - - -
20/07:30am 10.4 ESE 10 19 1029.8 - 0.2 - Partly cloudy 10 - - - -
20/07:00am 9.5 ESE 9 16 1029.6 - 0.2 - - 10 - - - -
20/06:30am 9.3 ESE 9 17 1029.2 - 0.2 - - 10 - - - -
20/06:00am 9.7 ESE 10 16 1029.4 - 0.2 - Partly cloudy 10 - - - -
20/05:30am 10.0 ESE 11 19 1029.2 - 0.2 - Partly cloudy 10 - - - -
20/05:00am 10.2 ESE 11 17 1028.7 - 0.2 - Partly cloudy 10 - - - -
20/04:30am 9.6 ESE 11 15 1028.7 - 0.2 - Partly cloudy 10 - - - -
20/04:00am 9.4 ESE 9 15 1028.6 - 0.2 - Partly cloudy 10 - - - -
20/03:30am 9.5 SE 10 14 1028.9 - 0.2 - - 10 - - - -
20/03:00am 9.7 SE 12 17 1028.7 - 0.2 - Mostly clear 10 - - - -
20/02:30am 10.1 ESE 10 14 1029.0 - 0.2 - Cloudy 10 - - - -
20/02:00am 10.7 SE 12 16 1029.2 - 0.2 - Partly cloudy 10 - - - -
20/01:30am 10.2 ESE 10 14 1029.5 - 0.2 - Cloudy 10 - - - -
20/01:00am 11.0 SE 13 18 1029.4 - 0.2 - Partly cloudy 10 - - - -
20/12:30am 10.8 SE 10 15 1029.6 - 0.2 - Partly cloudy 10 - - - -
20/12:00am 11.0 SE 10 14 1029.5 - 0.2 - Cloudy 10 - - - -
 
Date/Time
EDT
Temp

°C
Wind Pressure Rain
since 9am
mm
Weather Cloud Vis
km
Sea
Height
m
Swell
Dir
 
Speed
knots
Gust
knots
hPa Trend Height
m
Period
s
Dir
19/11:30pm 10.8 SE 9 13 1029.5 - 0.2 - Cloudy 10 - - - -
19/11:00pm 10.8 SE 10 14 1029.4 - 0.2 - Cloudy 10 - - - -
19/10:30pm 10.6 SE 10 16 1029.2 - 0.2 - Partly cloudy 10 - - - -
19/10:14pm 10.6 SE 11 14 1028.9 - 0.2 - Partly cloudy 10 - - - -
19/10:06pm 10.4 SE 11 16 1028.9 - 0.2 - Partly cloudy 9 - - - -
19/10:00pm 10.4 SE 12 16 1028.9 - 0.2 - Partly cloudy 4 - - - -
19/09:30pm 11.0 SSE 10 15 1028.9 - 0.0 - Partly cloudy 5 - - - -
19/09:20pm 11.3 SE 11 16 1028.9 - 0.0 - Partly cloudy 6 - - - -
19/09:00pm 11.7 SE 11 14 1028.2 - 0.0 - Cloudy 10 - - - -
19/08:30pm 11.8 SE 11 16 1028.0 - 0.0 - Partly cloudy 10 - - - -
19/08:22pm 11.7 SSE 10 14 1027.8 - 0.0 - Cloudy 10 - - - -
19/08:00pm 11.6 SSE 9 13 1027.8 - 0.0 - Partly cloudy 10 - - - -
19/07:30pm 11.7 SSE 10 19 1027.2 - 0.0 - Cloudy 10 - - - -
19/07:00pm 12.5 S 10 17 1026.6 - 0.0 - Partly cloudy 10 - - - -
19/06:30pm 12.9 S 12 19 1025.7 - 0.0 - Partly cloudy 10 - - - -
19/06:00pm 13.4 S 11 16 1025.2 - 0.0 - Cloudy 10 - - - -
19/05:54pm 13.5 S 12 18 1024.8 - 0.0 - Partly cloudy 10 - - - -
19/05:33pm 13.9 S 10 16 1024.5 - 0.0 - Partly cloudy 10 - - - -
19/05:30pm 14.0 S 9 16 1024.5 - 0.0 - Partly cloudy 10 - - - -
19/05:00pm 14.9 S 7 11 1024.6 - 0.0 - Partly cloudy 10 - - - -
19/04:30pm 14.5 S 9 13 1023.9 - 0.0 - Partly cloudy 10 - - - -
19/04:05pm 14.0 S 10 15 1024.4 - 0.0 - Partly cloudy 10 - - - -
19/04:00pm 14.0 S 10 15 1024.4 - 0.0 - Partly cloudy 10 - - - -
19/03:49pm 14.4 S 9 13 1024.0 - 0.0 - Partly cloudy 10 - - - -
19/03:30pm 14.2 S 9 13 1023.9 - 0.0 - Partly cloudy 10 - - - -
19/03:00pm 14.2 S 7 12 1023.8 - 0.0 - Cloudy 10 - - - -
19/02:30pm 14.3 S 8 13 1022.9 - 0.0 - Partly cloudy 10 - - - -
19/02:00pm 14.6 S 8 12 1023.2 - 0.0 - Partly cloudy 10 - - - -
19/01:54pm 14.9 S 8 12 1022.8 - 0.0 - Partly cloudy 10 - - - -
19/01:36pm 14.6 S 7 10 1022.4 - 0.0 - Cloudy 10 - - - -
19/01:30pm 14.4 S 8 9 1022.2 - 0.0 - Cloudy 10 - - - -
19/01:00pm 14.0 S 8 13 1022.4 - 0.0 - Cloudy 10 - - - -
19/12:30pm 14.3 S 9 14 1022.0 - 0.0 - Partly cloudy 10 - - - -
19/12:00pm 14.2 SSW 9 14 1022.2 - 0.0 - Cloudy 10 - - - -
19/11:30am 14.5 S 7 12 1021.7 - 0.0 - Cloudy 9 - - - -
19/11:00am 14.1 SSW 8 11 1021.5 - 0.0 - Cloudy 10 - - - -
19/10:30am 13.9 S 5 8 1020.8 - 0.0 - Cloudy 7 - - - -
19/10:01am 14.2 S 6 9 1020.9 - 0.0 - Cloudy 6 - - - -
19/10:00am 14.2 S 6 9 1020.8 - 0.0 - Cloudy 7 - - - -
19/09:30am 14.2 E 3 5 1020.3 - 0.0 - Cloudy 8 - - - -
19/09:29am 14.1 E 3 5 1020.3 - 0.0 - Cloudy 8 - - - -
19/09:00am 13.7 ENE 4 6 1019.9 - 0.0 - Cloudy 5 - - - -
19/08:30am 13.5 E 2 5 1020.0 - 0.0 - Cloudy 2 - - - -
19/08:00am 13.0 E 4 7 1019.8 - 0.0 - Cloudy 1 - - - -
19/07:30am 13.0 E 4 6 1019.2 - 0.0 - Cloudy 1 - - - -
19/07:00am 13.0 SSE 4 6 1019.0 - 0.0 - Cloudy 5 - - - -
19/06:30am 13.0 S 3 6 1019.3 - 0.0 - Cloudy 5 - - - -
19/06:00am 13.0 SSW 2 5 1019.0 - 0.0 - Cloudy 5 - - - -
19/05:30am 12.9 SSW 5 9 1019.2 - 0.0 - Cloudy 3 - - - -
19/05:00am 13.0 W 1 5 1019.2 - 0.0 - Cloudy 0.3 - - - -
19/04:30am 13.2 CALM 0 0 1018.6 - 0.0 - Cloudy 0.3 - - - -
19/04:00am 13.3 CALM 0 0 1018.7 - 0.0 - Cloudy 0.7 - - - -
19/03:30am 13.5 CALM 0 3 1019.1 - 0.0 - Cloudy 2 - - - -
19/03:00am 13.6 W 4 6 1019.5 - 0.0 - Cloudy 5 - - - -
19/02:30am 13.5 WNW 2 5 1019.7 - 0.0 - Cloudy 5 - - - -
19/02:01am 13.2 WNW 5 6 1020.0 - 0.0 - Partly cloudy 6 - - - -
19/02:00am 13.2 W 5 8 1020.0 - 0.0 - Partly cloudy 6 - - - -
19/01:32am 13.0 W 7 9 1019.8 - 0.0 - - 6 - - - -
19/01:30am 13.1 W 7 9 1019.8 - 0.0 - - 7 - - - -
19/01:18am 13.1 WNW 7 8 1019.8 - 0.0 - Partly cloudy 8 - - - -
19/01:00am 13.6 W 5 6 1019.8 - 0.0 - Partly cloudy 9 - - - -
19/12:46am 13.9 WSW 5 8 1019.9 - 0.0 - Partly cloudy 10 - - - -
19/12:30am 14.1 W 7 11 1019.8 - 0.0 - - 10 - - - -
19/12:00am 14.6 W 13 17 1019.7 - 0.0 - Cloudy 9 - - - -
 
Date/Time
EDT
Temp

°C
Wind Pressure Rain
since 9am
mm
Weather Cloud Vis
km
Sea
Height
m
Swell
Dir
 
Speed
knots
Gust
knots
hPa Trend Height
m
Period
s
Dir
18/11:30pm 14.8 WNW 10 15 1019.4 - 0.0 - - 10 - - - -
18/11:00pm 15.2 W 13 17 1019.4 - 0.0 - - 10 - - - -
18/10:30pm 15.7 W 15 19 1019.5 - 0.0 - - 10 - - - -
18/10:00pm 16.8 W 16 20 1019.7 - 0.0 - - 10 - - - -
18/09:30pm 17.6 W 16 22 1019.7 - 0.0 - - 10 - - - -
18/09:00pm 19.0 W 18 30 1019.1 - 0.0 - Cloudy 10 - - - -
18/08:56pm 19.2 W 15 30 1019.2 - 0.0 - - 10 - - - -
18/08:30pm 19.7 W 13 18 1018.7 - 0.0 - - 10 - - - -

Other Formats:

Comma delimited format used in spreadsheet applications
http://www.bom.gov.au/fwo/IDV60701/IDV60701.94828.axf

JavaScript Object Notation format (JSON) in row-major order
http://www.bom.gov.au/fwo/IDV60701/IDV60701.94828.json